createdAt,value
2022-09-11T00:01:41.339Z,2.90
2022-09-11T00:04:11.070Z,3.10
2022-09-11T00:06:40.921Z,3.10
2022-09-11T00:09:07.945Z,2.85
2022-09-11T00:11:39.430Z,2.88
2022-09-11T00:14:07.648Z,3.35
2022-09-11T00:16:37.404Z,2.97
2022-09-11T00:19:12.249Z,2.80
2022-09-11T00:21:39.760Z,2.65
2022-09-11T00:24:07.306Z,2.75
2022-09-11T00:26:34.433Z,2.95
2022-09-11T00:29:01.868Z,2.58
2022-09-11T00:31:30.405Z,2.55
2022-09-11T00:33:59.136Z,2.40
2022-09-11T00:36:28.889Z,2.53
2022-09-11T00:38:56.283Z,2.40
2022-09-11T00:41:25.169Z,2.67
2022-09-11T00:43:55.981Z,2.58
2022-09-11T00:46:37.105Z,2.72
2022-09-11T00:49:16.335Z,2.10
2022-09-11T00:51:47.527Z,2.25
2022-09-11T00:54:19.557Z,2.58
2022-09-11T00:56:47.971Z,2.70
2022-09-11T00:59:17.064Z,2.40
2022-09-11T01:01:44.102Z,2.60
2022-09-11T01:04:11.860Z,2.72
2022-09-11T01:06:40.068Z,2.15
2022-09-11T01:09:07.027Z,2.50
2022-09-11T01:11:49.673Z,2.55
2022-09-11T01:14:55.366Z,2.40
2022-09-11T01:17:22.418Z,2.38
2022-09-11T01:20:07.437Z,3.30
2022-09-11T01:23:15.771Z,2.67
2022-09-11T01:26:24.680Z,2.67
2022-09-11T01:29:13.136Z,2.33
2022-09-11T01:32:07.913Z,2.42
2022-09-11T01:34:45.922Z,2.50
2022-09-11T01:37:25.657Z,2.60
2022-09-11T01:40:01.444Z,1.95
2022-09-11T01:42:32.120Z,2.10
2022-09-11T01:44:59.845Z,2.00
2022-09-11T01:47:32.582Z,2.33
2022-09-11T01:50:09.859Z,2.08
2022-09-11T01:52:47.560Z,1.95
2022-09-11T01:55:20.531Z,2.20
2022-09-11T01:57:58.892Z,2.10
2022-09-11T02:00:26.480Z,1.95
2022-09-11T02:03:03.914Z,2.10
2022-09-11T02:05:37.932Z,2.72
2022-09-11T02:08:10.684Z,2.35
2022-09-11T02:10:45.315Z,2.28
2022-09-11T02:13:27.951Z,2.25
2022-09-11T02:16:14.373Z,2.10
2022-09-11T02:18:44.540Z,2.15
2022-09-11T02:21:12.411Z,2.13
2022-09-11T02:23:40.054Z,2.05
2022-09-11T02:26:10.664Z,2.40
2022-09-11T02:28:40.792Z,2.20
2022-09-11T02:31:07.933Z,2.40
2022-09-11T02:33:37.211Z,2.88
2022-09-11T02:36:32.740Z,2.47
2022-09-11T02:39:21.654Z,2.67
2022-09-11T02:42:13.520Z,2.60
2022-09-11T02:44:57.268Z,2.53
2022-09-11T02:50:30.514Z,2.60
2022-09-11T02:53:29.014Z,3.28
2022-09-11T02:56:18.512Z,3.38
2022-09-11T02:58:53.121Z,2.85
2022-09-11T03:01:20.186Z,3.30
2022-09-11T03:03:47.944Z,3.40
2022-09-11T03:06:25.130Z,3.33
2022-09-11T03:08:52.932Z,4.30
2022-09-11T03:11:20.389Z,3.22
2022-09-11T03:13:47.585Z,3.35
2022-09-11T03:16:15.213Z,3.25
2022-09-11T03:18:42.510Z,3.67
2022-09-11T03:21:09.908Z,4.20
2022-09-11T03:23:37.735Z,3.85
2022-09-11T03:26:04.945Z,4.47
2022-09-11T03:28:32.151Z,4.00
2022-09-11T03:30:59.685Z,4.53
2022-09-11T03:33:26.904Z,4.10
2022-09-11T03:35:56.154Z,4.60
2022-09-11T03:38:24.417Z,4.95
2022-09-11T03:40:51.475Z,4.47
2022-09-11T03:43:23.616Z,4.40
2022-09-11T03:45:51.914Z,4.07
2022-09-11T03:48:19.203Z,4.65
2022-09-11T03:50:46.552Z,4.70
2022-09-11T03:53:14.654Z,4.43
2022-09-11T03:55:41.935Z,4.78
2022-09-11T03:58:08.979Z,4.50
2022-09-11T04:00:41.531Z,4.70
2022-09-11T04:03:14.718Z,4.87
2022-09-11T04:05:43.342Z,4.97
2022-09-11T04:08:13.738Z,4.70
2022-09-11T04:10:43.363Z,5.35
2022-09-11T04:13:10.940Z,5.00
2022-09-11T04:15:38.114Z,5.20
2022-09-11T04:18:08.425Z,5.32
2022-09-11T04:20:39.311Z,4.35
2022-09-11T04:23:08.939Z,4.57
2022-09-11T04:25:38.485Z,5.07
2022-09-11T04:28:05.570Z,5.07
2022-09-11T04:30:35.986Z,4.43
2022-09-11T04:33:03.927Z,4.40
2022-09-11T04:35:31.743Z,4.45
2022-09-11T04:37:58.934Z,4.20
2022-09-11T04:40:26.262Z,4.32
2022-09-11T04:42:53.611Z,3.83
2022-09-11T04:45:20.627Z,4.10
2022-09-11T04:47:48.179Z,4.53
2022-09-11T04:50:15.219Z,4.22
2022-09-11T04:52:42.307Z,4.38
2022-09-11T04:55:12.035Z,4.10
2022-09-11T04:57:39.032Z,4.30
2022-09-11T05:00:08.267Z,4.20
2022-09-11T05:02:38.017Z,4.28
2022-09-11T05:05:07.921Z,4.30
2022-09-11T05:07:35.888Z,4.70
2022-09-11T05:10:06.035Z,4.32
2022-09-11T05:12:33.525Z,4.53
2022-09-11T05:15:00.586Z,4.82
2022-09-11T05:17:28.223Z,5.03
2022-09-11T05:19:56.077Z,4.70
2022-09-11T05:22:25.290Z,4.90
2022-09-11T05:24:52.726Z,4.25
2022-09-11T05:27:20.030Z,4.85
2022-09-11T05:29:47.305Z,4.95
2022-09-11T05:32:14.739Z,5.50
2022-09-11T05:34:41.915Z,5.03
2022-09-11T05:37:08.952Z,6.25
2022-09-11T05:39:36.616Z,5.60
2022-09-11T05:42:03.797Z,6.13
2022-09-11T05:44:30.961Z,5.93
2022-09-11T05:47:00.563Z,5.38
2022-09-11T05:49:27.790Z,5.30
2022-09-11T05:51:54.959Z,4.78
2022-09-11T05:54:25.882Z,5.35
2022-09-11T05:56:53.507Z,4.78
2022-09-11T05:59:20.590Z,4.75
2022-09-11T06:01:50.841Z,5.15
2022-09-11T06:04:18.063Z,4.70
2022-09-11T06:06:45.312Z,4.30
2022-09-11T06:09:12.899Z,4.13
2022-09-11T06:11:40.148Z,3.60
2022-09-11T06:14:07.273Z,4.60
2022-09-11T06:16:35.140Z,4.65
2022-09-11T06:19:04.810Z,5.00
2022-09-11T06:21:32.257Z,4.63
2022-09-11T06:24:02.645Z,4.72
2022-09-11T06:26:30.041Z,4.65
2022-09-11T06:28:57.111Z,4.10
2022-09-11T06:31:31.650Z,4.72
2022-09-11T06:34:01.024Z,3.95
2022-09-11T06:36:28.324Z,5.35
2022-09-11T06:38:56.904Z,3.40
2022-09-11T06:41:26.189Z,2.95
2022-09-11T06:43:54.425Z,3.30
2022-09-11T06:46:23.531Z,2.70
2022-09-11T06:48:51.780Z,2.50
2022-09-11T06:51:20.607Z,2.10
2022-09-11T06:53:48.249Z,2.22
2022-09-11T06:56:17.879Z,2.65
2022-09-11T06:58:46.314Z,2.78
2022-09-11T07:01:16.276Z,2.50
2022-09-11T07:03:52.035Z,3.20
2022-09-11T07:06:22.535Z,3.28
2022-09-11T07:08:53.759Z,4.72
2022-09-11T07:11:21.330Z,8.35
2022-09-11T17:25:44.887Z,11.57
2022-09-11T17:28:14.785Z,13.38
2022-09-11T17:30:44.307Z,9.75
2022-09-11T17:33:11.712Z,10.50
2022-09-11T17:35:41.871Z,10.77
2022-09-11T17:38:09.252Z,9.25
2022-09-11T17:40:36.918Z,9.98
2022-09-11T17:43:04.412Z,10.55
2022-09-11T17:45:31.608Z,10.05
2022-09-11T17:47:58.974Z,10.70
2022-09-11T17:50:26.493Z,11.32
2022-09-11T17:52:54.016Z,10.73
2022-09-11T17:55:21.316Z,10.90
2022-09-11T17:57:53.166Z,9.98
2022-09-11T18:00:20.775Z,10.02
2022-09-11T18:02:48.165Z,10.85
2022-09-11T18:05:16.178Z,11.07
2022-09-11T18:07:43.244Z,11.93
2022-09-11T18:10:10.597Z,15.20
2022-09-11T18:12:38.099Z,11.80
2022-09-11T18:15:05.889Z,10.90
2022-09-11T18:17:33.376Z,11.73
2022-09-11T18:20:01.319Z,11.27
2022-09-11T18:22:29.758Z,11.23
2022-09-11T18:25:00.041Z,12.00
2022-09-11T18:27:31.446Z,10.98
2022-09-11T18:29:59.950Z,11.27
2022-09-11T18:32:30.117Z,10.77
2022-09-11T18:35:00.363Z,11.13
2022-09-11T18:37:29.696Z,10.63
2022-09-11T18:39:57.420Z,10.43
2022-09-11T18:42:25.596Z,10.55
2022-09-11T18:44:55.300Z,10.70
2022-09-11T18:47:22.605Z,10.35
2022-09-11T18:49:54.393Z,10.35
2022-09-11T18:52:26.046Z,10.98
2022-09-11T18:54:53.940Z,11.35
2022-09-11T18:57:21.326Z,10.10
2022-09-11T18:59:48.456Z,10.38
2022-09-11T19:02:15.989Z,10.32
2022-09-11T19:04:43.165Z,10.65
2022-09-11T19:07:10.916Z,10.82
2022-09-11T19:09:45.661Z,10.70
2022-09-11T19:12:15.835Z,10.30
2022-09-11T19:14:44.978Z,10.90
2022-09-11T19:17:15.241Z,10.75
2022-09-11T19:19:42.453Z,9.80
2022-09-11T19:22:10.314Z,9.73
2022-09-11T19:24:37.448Z,9.85
2022-09-11T19:27:04.904Z,9.52
2022-09-11T19:29:32.652Z,10.00
2022-09-11T19:32:00.371Z,9.70
2022-09-11T19:34:29.806Z,24.17
2022-09-11T19:37:00.322Z,16.98
2022-09-11T19:39:29.602Z,17.88
2022-09-11T19:41:56.609Z,20.38
2022-09-11T19:44:24.665Z,19.77
2022-09-11T19:46:51.937Z,28.08
2022-09-11T19:49:21.511Z,13.73
2022-09-11T19:51:51.687Z,9.98
2022-09-11T19:54:20.937Z,18.70
2022-09-11T19:56:50.667Z,12.00
2022-09-11T19:59:20.840Z,11.93
2022-09-11T20:01:50.480Z,12.07
2022-09-11T20:04:17.809Z,12.63
2022-09-11T20:09:30.394Z,9.43
2022-09-11T20:12:01.372Z,12.57
2022-09-11T20:14:30.031Z,11.48
2022-09-11T20:16:57.162Z,13.95
2022-09-11T20:19:26.998Z,10.30
2022-09-11T20:21:56.646Z,9.90
2022-09-11T20:24:24.101Z,9.27
2022-09-11T20:26:55.262Z,9.73
2022-09-11T20:29:22.344Z,9.02
2022-09-11T20:31:49.447Z,8.68
2022-09-11T20:34:20.267Z,9.98
2022-09-11T20:36:47.884Z,8.88
2022-09-11T20:39:16.470Z,8.55
2022-09-11T20:41:45.261Z,10.65
2022-09-11T20:44:15.283Z,9.18
2022-09-11T20:46:42.739Z,19.27
2022-09-11T20:49:13.178Z,17.50
2022-09-11T20:51:40.527Z,9.20
2022-09-11T20:54:10.852Z,8.98
2022-09-11T20:56:38.837Z,8.10
2022-09-11T20:59:05.861Z,12.88
2022-09-11T21:01:33.779Z,9.50
2022-09-11T21:04:03.339Z,8.82
2022-09-11T21:06:33.562Z,8.38
2022-09-11T21:09:05.816Z,8.50
2022-09-11T21:11:34.687Z,8.45
2022-09-11T21:14:04.063Z,8.10
2022-09-11T21:16:35.614Z,8.10
2022-09-11T21:19:05.495Z,8.10
2022-09-11T21:21:34.006Z,8.55
2022-09-11T21:24:04.196Z,7.75
2022-09-11T21:26:35.229Z,8.00
2022-09-11T21:29:05.378Z,7.75
2022-09-11T21:31:35.338Z,8.25
2022-09-11T21:34:05.393Z,7.57
2022-09-11T21:36:33.214Z,6.72
2022-09-11T21:39:00.624Z,7.10
2022-09-11T21:41:27.880Z,7.18
2022-09-11T21:43:54.979Z,9.30
2022-09-11T21:46:22.276Z,14.02
2022-09-11T21:48:52.021Z,8.82
2022-09-11T21:51:21.998Z,6.90
2022-09-11T21:53:56.883Z,7.55
2022-09-11T21:56:26.770Z,7.57
2022-09-11T21:58:57.620Z,8.02
2022-09-11T22:01:28.781Z,6.93
2022-09-11T22:03:56.094Z,7.50
2022-09-11T22:06:25.476Z,7.10
2022-09-11T22:08:54.136Z,7.20
2022-09-11T22:11:21.844Z,7.60
2022-09-11T22:13:49.890Z,7.85
2022-09-11T22:16:22.738Z,7.28
2022-09-11T22:18:54.415Z,6.68
2022-09-11T22:21:21.713Z,8.13
2022-09-11T22:23:51.273Z,7.60
2022-09-11T22:26:21.000Z,6.82
2022-09-11T22:28:51.184Z,8.75
2022-09-11T22:31:21.787Z,7.22
2022-09-11T22:33:49.049Z,7.03
2022-09-11T22:36:21.777Z,7.68
2022-09-11T22:38:49.554Z,7.70
2022-09-11T22:41:19.864Z,7.93
2022-09-11T22:43:49.983Z,7.68
2022-09-11T22:46:20.999Z,7.75
2022-09-11T22:48:48.625Z,7.43
2022-09-11T22:51:15.951Z,7.88
2022-09-11T22:53:43.461Z,8.00
2022-09-11T22:56:10.890Z,8.43
2022-09-11T22:58:38.038Z,8.48
2022-09-11T23:01:08.742Z,7.97
2022-09-11T23:03:36.164Z,8.30
2022-09-11T23:06:04.060Z,8.95
2022-09-11T23:08:39.074Z,7.93
2022-09-11T23:11:07.200Z,8.50
2022-09-11T23:13:34.992Z,8.38
2022-09-11T23:16:29.153Z,8.43
2022-09-11T23:19:02.351Z,9.10
2022-09-11T23:21:31.092Z,8.73
2022-09-11T23:23:59.982Z,8.77
2022-09-11T23:26:29.296Z,8.82
2022-09-11T23:28:58.810Z,9.38
2022-09-11T23:31:31.607Z,8.60
2022-09-11T23:34:01.827Z,8.77
2022-09-11T23:36:30.878Z,8.13
2022-09-11T23:39:00.366Z,8.60
2022-09-11T23:41:28.962Z,8.30
2022-09-11T23:43:56.934Z,7.95
2022-09-11T23:46:24.191Z,9.35
2022-09-11T23:48:51.796Z,7.28
2022-09-11T23:51:19.289Z,8.23
2022-09-11T23:53:48.558Z,7.97
2022-09-11T23:56:15.631Z,8.15
2022-09-11T23:58:45.890Z,7.72
